sensor_id;sensor_type;location;lat;lon;timestamp;P1;durP1;ratioP1;P2;durP2;ratioP2
54372;SDS011;69157;53.094;10.016;2024-02-26T00:01:39;1.02;;;0.98;;
54372;SDS011;69157;53.094;10.016;2024-02-26T00:04:04;0.95;;;0.82;;
54372;SDS011;69157;53.094;10.016;2024-02-26T00:06:30;1.02;;;1.02;;
54372;SDS011;69157;53.094;10.016;2024-02-26T00:08:58;1.17;;;1.10;;
54372;SDS011;69157;53.094;10.016;2024-02-26T00:11:24;1.05;;;1.00;;
54372;SDS011;69157;53.094;10.016;2024-02-26T00:13:50;1.50;;;1.38;;
54372;SDS011;69157;53.094;10.016;2024-02-26T00:16:16;1.98;;;1.33;;
54372;SDS011;69157;53.094;10.016;2024-02-26T00:18:42;1.10;;;1.10;;
54372;SDS011;69157;53.094;10.016;2024-02-26T00:21:07;0.88;;;0.88;;
54372;SDS011;69157;53.094;10.016;2024-02-26T00:23:33;1.17;;;1.10;;
54372;SDS011;69157;53.094;10.016;2024-02-26T00:25:59;1.40;;;1.30;;
54372;SDS011;69157;53.094;10.016;2024-02-26T00:28:25;3.55;;;1.13;;
54372;SDS011;69157;53.094;10.016;2024-02-26T00:30:52;1.33;;;1.25;;
54372;SDS011;69157;53.094;10.016;2024-02-26T00:33:20;0.75;;;0.75;;
54372;SDS011;69157;53.094;10.016;2024-02-26T00:35:46;0.85;;;0.85;;
54372;SDS011;69157;53.094;10.016;2024-02-26T00:38:12;1.88;;;0.70;;
54372;SDS011;69157;53.094;10.016;2024-02-26T00:40:40;0.98;;;0.98;;
54372;SDS011;69157;53.094;10.016;2024-02-26T00:43:06;3.50;;;1.33;;
54372;SDS011;69157;53.094;10.016;2024-02-26T00:45:32;3.60;;;1.13;;
54372;SDS011;69157;53.094;10.016;2024-02-26T00:48:00;1.58;;;1.20;;
54372;SDS011;69157;53.094;10.016;2024-02-26T00:50:29;1.83;;;0.82;;
54372;SDS011;69157;53.094;10.016;2024-02-26T00:52:55;2.25;;;1.38;;
54372;SDS011;69157;53.094;10.016;2024-02-26T00:55:21;1.00;;;1.00;;
54372;SDS011;69157;53.094;10.016;2024-02-26T00:57:47;3.60;;;0.90;;
54372;SDS011;69157;53.094;10.016;2024-02-26T01:00:14;2.35;;;1.17;;
54372;SDS011;69157;53.094;10.016;2024-02-26T01:02:40;0.73;;;0.73;;
54372;SDS011;69157;53.094;10.016;2024-02-26T01:05:07;1.92;;;1.50;;
54372;SDS011;69157;53.094;10.016;2024-02-26T01:07:34;1.42;;;1.23;;
54372;SDS011;69157;53.094;10.016;2024-02-26T01:10:01;2.05;;;1.17;;
54372;SDS011;69157;53.094;10.016;2024-02-26T01:12:27;2.92;;;1.15;;
54372;SDS011;69157;53.094;10.016;2024-02-26T01:14:53;1.70;;;1.30;;
54372;SDS011;69157;53.094;10.016;2024-02-26T01:17:19;1.25;;;1.15;;
54372;SDS011;69157;53.094;10.016;2024-02-26T01:19:45;3.58;;;1.60;;
54372;SDS011;69157;53.094;10.016;2024-02-26T01:22:13;3.55;;;1.65;;
54372;SDS011;69157;53.094;10.016;2024-02-26T01:24:39;1.60;;;1.17;;
54372;SDS011;69157;53.094;10.016;2024-02-26T01:27:05;1.70;;;0.93;;
54372;SDS011;69157;53.094;10.016;2024-02-26T01:29:32;1.15;;;1.00;;
54372;SDS011;69157;53.094;10.016;2024-02-26T01:31:58;1.58;;;1.48;;
54372;SDS011;69157;53.094;10.016;2024-02-26T01:34:24;2.40;;;1.60;;
54372;SDS011;69157;53.094;10.016;2024-02-26T01:36:50;2.58;;;1.83;;
54372;SDS011;69157;53.094;10.016;2024-02-26T01:39:16;1.42;;;1.15;;
54372;SDS011;69157;53.094;10.016;2024-02-26T01:41:44;1.20;;;1.10;;
54372;SDS011;69157;53.094;10.016;2024-02-26T01:44:11;1.15;;;1.02;;
54372;SDS011;69157;53.094;10.016;2024-02-26T01:46:40;2.33;;;1.33;;
54372;SDS011;69157;53.094;10.016;2024-02-26T01:49:08;2.17;;;1.38;;
54372;SDS011;69157;53.094;10.016;2024-02-26T01:51:34;2.42;;;1.33;;
54372;SDS011;69157;53.094;10.016;2024-02-26T01:54:02;2.03;;;1.85;;
54372;SDS011;69157;53.094;10.016;2024-02-26T01:56:29;2.75;;;1.00;;
54372;SDS011;69157;53.094;10.016;2024-02-26T01:58:57;0.95;;;0.90;;
54372;SDS011;69157;53.094;10.016;2024-02-26T02:01:25;7.20;;;1.13;;
54372;SDS011;69157;53.094;10.016;2024-02-26T02:03:51;1.17;;;1.15;;
54372;SDS011;69157;53.094;10.016;2024-02-26T02:06:17;2.35;;;1.08;;
54372;SDS011;69157;53.094;10.016;2024-02-26T02:08:43;1.05;;;1.00;;
54372;SDS011;69157;53.094;10.016;2024-02-26T02:11:09;1.08;;;1.02;;
54372;SDS011;69157;53.094;10.016;2024-02-26T02:13:40;1.20;;;0.90;;
54372;SDS011;69157;53.094;10.016;2024-02-26T02:16:06;1.30;;;1.20;;
54372;SDS011;69157;53.094;10.016;2024-02-26T02:18:32;1.25;;;1.15;;
54372;SDS011;69157;53.094;10.016;2024-02-26T02:21:02;1.67;;;1.23;;
54372;SDS011;69157;53.094;10.016;2024-02-26T02:23:28;2.47;;;1.52;;
54372;SDS011;69157;53.094;10.016;2024-02-26T02:25:54;1.33;;;1.17;;
54372;SDS011;69157;53.094;10.016;2024-02-26T02:28:21;1.20;;;1.20;;
54372;SDS011;69157;53.094;10.016;2024-02-26T02:30:48;1.23;;;1.23;;
54372;SDS011;69157;53.094;10.016;2024-02-26T02:33:14;2.63;;;1.30;;
54372;SDS011;69157;53.094;10.016;2024-02-26T02:35:41;0.93;;;0.90;;
54372;SDS011;69157;53.094;10.016;2024-02-26T02:38:07;1.30;;;1.20;;
54372;SDS011;69157;53.094;10.016;2024-02-26T02:40:33;2.80;;;1.92;;
54372;SDS011;69157;53.094;10.016;2024-02-26T02:42:59;1.60;;;1.45;;
54372;SDS011;69157;53.094;10.016;2024-02-26T02:45:26;1.15;;;1.05;;
54372;SDS011;69157;53.094;10.016;2024-02-26T02:47:52;1.60;;;1.42;;
54372;SDS011;69157;53.094;10.016;2024-02-26T02:50:18;2.00;;;1.80;;
54372;SDS011;69157;53.094;10.016;2024-02-26T02:52:44;2.28;;;1.73;;
54372;SDS011;69157;53.094;10.016;2024-02-26T02:55:10;1.30;;;1.27;;
54372;SDS011;69157;53.094;10.016;2024-02-26T02:57:36;3.00;;;1.40;;
54372;SDS011;69157;53.094;10.016;2024-02-26T03:00:07;2.75;;;1.30;;
54372;SDS011;69157;53.094;10.016;2024-02-26T03:02:33;1.42;;;1.30;;
54372;SDS011;69157;53.094;10.016;2024-02-26T03:05:01;2.00;;;1.90;;
54372;SDS011;69157;53.094;10.016;2024-02-26T03:07:27;6.35;;;1.30;;
54372;SDS011;69157;53.094;10.016;2024-02-26T03:09:53;0.90;;;0.90;;
54372;SDS011;69157;53.094;10.016;2024-02-26T03:12:20;3.80;;;1.48;;
54372;SDS011;69157;53.094;10.016;2024-02-26T03:14:46;2.72;;;1.42;;
54372;SDS011;69157;53.094;10.016;2024-02-26T03:17:13;1.23;;;1.13;;
54372;SDS011;69157;53.094;10.016;2024-02-26T03:19:39;1.38;;;1.33;;
54372;SDS011;69157;53.094;10.016;2024-02-26T03:22:05;3.92;;;1.75;;
54372;SDS011;69157;53.094;10.016;2024-02-26T03:24:31;2.38;;;1.55;;
54372;SDS011;69157;53.094;10.016;2024-02-26T03:26:57;1.38;;;1.27;;
54372;SDS011;69157;53.094;10.016;2024-02-26T03:29:24;1.88;;;1.48;;
54372;SDS011;69157;53.094;10.016;2024-02-26T03:31:51;0.85;;;0.85;;
54372;SDS011;69157;53.094;10.016;2024-02-26T03:34:17;1.45;;;1.35;;
54372;SDS011;69157;53.094;10.016;2024-02-26T03:36:44;1.85;;;1.10;;
54372;SDS011;69157;53.094;10.016;2024-02-26T03:39:11;1.98;;;1.17;;
54372;SDS011;69157;53.094;10.016;2024-02-26T03:41:37;1.88;;;0.88;;
54372;SDS011;69157;53.094;10.016;2024-02-26T03:44:03;1.83;;;1.00;;
54372;SDS011;69157;53.094;10.016;2024-02-26T03:46:29;2.30;;;1.42;;
54372;SDS011;69157;53.094;10.016;2024-02-26T03:48:55;4.32;;;1.50;;
54372;SDS011;69157;53.094;10.016;2024-02-26T03:51:21;1.50;;;1.40;;
54372;SDS011;69157;53.094;10.016;2024-02-26T03:53:47;3.33;;;1.40;;
54372;SDS011;69157;53.094;10.016;2024-02-26T03:56:13;2.00;;;1.10;;
54372;SDS011;69157;53.094;10.016;2024-02-26T03:58:40;2.17;;;0.75;;
54372;SDS011;69157;53.094;10.016;2024-02-26T04:01:07;1.60;;;1.50;;
54372;SDS011;69157;53.094;10.016;2024-02-26T04:03:34;2.97;;;1.77;;
54372;SDS011;69157;53.094;10.016;2024-02-26T04:06:00;1.95;;;1.27;;
54372;SDS011;69157;53.094;10.016;2024-02-26T04:08:26;1.17;;;1.08;;
54372;SDS011;69157;53.094;10.016;2024-02-26T04:10:52;2.20;;;1.30;;
54372;SDS011;69157;53.094;10.016;2024-02-26T04:13:18;1.17;;;0.90;;
54372;SDS011;69157;53.094;10.016;2024-02-26T04:15:44;3.90;;;2.08;;
54372;SDS011;69157;53.094;10.016;2024-02-26T04:18:12;2.10;;;1.17;;
54372;SDS011;69157;53.094;10.016;2024-02-26T04:20:39;2.22;;;1.45;;
54372;SDS011;69157;53.094;10.016;2024-02-26T04:23:07;1.58;;;1.23;;
54372;SDS011;69157;53.094;10.016;2024-02-26T04:25:33;1.40;;;0.98;;
54372;SDS011;69157;53.094;10.016;2024-02-26T04:28:00;3.45;;;1.40;;
54372;SDS011;69157;53.094;10.016;2024-02-26T04:30:26;0.88;;;0.88;;
54372;SDS011;69157;53.094;10.016;2024-02-26T04:32:52;10.80;;;1.92;;
54372;SDS011;69157;53.094;10.016;2024-02-26T04:35:18;1.42;;;1.30;;
54372;SDS011;69157;53.094;10.016;2024-02-26T04:37:44;1.10;;;1.00;;
54372;SDS011;69157;53.094;10.016;2024-02-26T04:40:10;1.95;;;1.55;;
54372;SDS011;69157;53.094;10.016;2024-02-26T04:42:36;1.60;;;1.25;;
54372;SDS011;69157;53.094;10.016;2024-02-26T04:45:02;2.10;;;1.92;;
54372;SDS011;69157;53.094;10.016;2024-02-26T04:47:28;1.85;;;1.52;;
54372;SDS011;69157;53.094;10.016;2024-02-26T04:49:56;0.95;;;0.95;;
54372;SDS011;69157;53.094;10.016;2024-02-26T04:52:22;2.50;;;1.60;;
54372;SDS011;69157;53.094;10.016;2024-02-26T04:54:49;6.28;;;1.63;;
54372;SDS011;69157;53.094;10.016;2024-02-26T04:57:17;1.67;;;1.50;;
54372;SDS011;69157;53.094;10.016;2024-02-26T04:59:44;1.30;;;1.20;;
54372;SDS011;69157;53.094;10.016;2024-02-26T05:02:11;1.60;;;1.48;;
54372;SDS011;69157;53.094;10.016;2024-02-26T05:04:38;1.98;;;1.63;;
54372;SDS011;69157;53.094;10.016;2024-02-26T05:07:04;2.70;;;1.95;;
54372;SDS011;69157;53.094;10.016;2024-02-26T05:09:31;1.55;;;1.45;;
54372;SDS011;69157;53.094;10.016;2024-02-26T05:11:58;1.55;;;1.23;;
54372;SDS011;69157;53.094;10.016;2024-02-26T05:14:25;1.58;;;1.33;;
54372;SDS011;69157;53.094;10.016;2024-02-26T05:16:51;2.40;;;1.38;;
54372;SDS011;69157;53.094;10.016;2024-02-26T05:19:17;1.98;;;1.85;;
54372;SDS011;69157;53.094;10.016;2024-02-26T05:21:43;1.77;;;1.52;;
54372;SDS011;69157;53.094;10.016;2024-02-26T05:24:09;4.68;;;1.38;;
54372;SDS011;69157;53.094;10.016;2024-02-26T05:26:36;1.55;;;1.45;;
54372;SDS011;69157;53.094;10.016;2024-02-26T05:29:02;2.13;;;1.38;;
54372;SDS011;69157;53.094;10.016;2024-02-26T05:31:27;1.52;;;1.33;;
54372;SDS011;69157;53.094;10.016;2024-02-26T05:33:54;1.95;;;1.20;;
54372;SDS011;69157;53.094;10.016;2024-02-26T05:36:20;1.77;;;1.60;;
54372;SDS011;69157;53.094;10.016;2024-02-26T05:38:48;2.22;;;1.73;;
54372;SDS011;69157;53.094;10.016;2024-02-26T05:41:15;2.85;;;2.17;;
54372;SDS011;69157;53.094;10.016;2024-02-26T05:43:41;4.78;;;1.85;;
54372;SDS011;69157;53.094;10.016;2024-02-26T05:46:07;1.20;;;1.10;;
54372;SDS011;69157;53.094;10.016;2024-02-26T05:48:33;2.05;;;1.85;;
54372;SDS011;69157;53.094;10.016;2024-02-26T05:50:59;3.40;;;1.65;;
54372;SDS011;69157;53.094;10.016;2024-02-26T05:53:25;1.88;;;1.75;;
54372;SDS011;69157;53.094;10.016;2024-02-26T05:55:52;2.63;;;1.73;;
54372;SDS011;69157;53.094;10.016;2024-02-26T05:58:18;3.42;;;1.52;;
54372;SDS011;69157;53.094;10.016;2024-02-26T06:00:44;1.90;;;1.40;;
54372;SDS011;69157;53.094;10.016;2024-02-26T06:03:11;1.20;;;1.15;;
54372;SDS011;69157;53.094;10.016;2024-02-26T06:05:37;2.85;;;1.33;;
54372;SDS011;69157;53.094;10.016;2024-02-26T06:08:04;2.67;;;1.67;;
54372;SDS011;69157;53.094;10.016;2024-02-26T06:10:33;2.65;;;1.40;;
54372;SDS011;69157;53.094;10.016;2024-02-26T06:12:59;1.40;;;1.05;;
54372;SDS011;69157;53.094;10.016;2024-02-26T06:15:25;1.60;;;1.30;;
54372;SDS011;69157;53.094;10.016;2024-02-26T06:17:51;1.80;;;1.08;;
54372;SDS011;69157;53.094;10.016;2024-02-26T06:20:17;2.25;;;1.85;;
54372;SDS011;69157;53.094;10.016;2024-02-26T06:22:43;1.90;;;1.35;;
54372;SDS011;69157;53.094;10.016;2024-02-26T06:25:09;1.30;;;1.20;;
54372;SDS011;69157;53.094;10.016;2024-02-26T06:27:35;1.40;;;1.10;;
54372;SDS011;69157;53.094;10.016;2024-02-26T06:30:01;1.50;;;1.40;;
54372;SDS011;69157;53.094;10.016;2024-02-26T06:32:27;6.40;;;1.63;;
54372;SDS011;69157;53.094;10.016;2024-02-26T06:34:54;4.78;;;1.50;;
54372;SDS011;69157;53.094;10.016;2024-02-26T06:37:20;3.30;;;1.67;;
54372;SDS011;69157;53.094;10.016;2024-02-26T06:39:46;2.70;;;2.13;;
54372;SDS011;69157;53.094;10.016;2024-02-26T06:42:12;5.43;;;2.28;;
54372;SDS011;69157;53.094;10.016;2024-02-26T06:44:38;2.03;;;1.88;;
54372;SDS011;69157;53.094;10.016;2024-02-26T06:47:05;1.90;;;1.30;;
54372;SDS011;69157;53.094;10.016;2024-02-26T06:49:31;2.20;;;1.73;;
54372;SDS011;69157;53.094;10.016;2024-02-26T06:51:57;1.70;;;1.45;;
54372;SDS011;69157;53.094;10.016;2024-02-26T06:54:24;1.13;;;0.95;;
54372;SDS011;69157;53.094;10.016;2024-02-26T06:56:50;4.07;;;1.45;;
54372;SDS011;69157;53.094;10.016;2024-02-26T06:59:15;1.92;;;1.58;;
54372;SDS011;69157;53.094;10.016;2024-02-26T07:01:42;1.35;;;1.27;;
54372;SDS011;69157;53.094;10.016;2024-02-26T07:04:08;2.13;;;1.92;;
54372;SDS011;69157;53.094;10.016;2024-02-26T07:06:36;2.10;;;1.45;;
54372;SDS011;69157;53.094;10.016;2024-02-26T07:09:02;3.13;;;1.63;;
54372;SDS011;69157;53.094;10.016;2024-02-26T07:11:29;1.98;;;1.55;;
54372;SDS011;69157;53.094;10.016;2024-02-26T07:13:56;4.07;;;1.83;;
54372;SDS011;69157;53.094;10.016;2024-02-26T07:16:22;1.60;;;1.50;;
54372;SDS011;69157;53.094;10.016;2024-02-26T07:18:49;3.30;;;1.95;;
54372;SDS011;69157;53.094;10.016;2024-02-26T07:21:16;2.03;;;1.83;;
54372;SDS011;69157;53.094;10.016;2024-02-26T07:23:42;1.58;;;1.30;;
54372;SDS011;69157;53.094;10.016;2024-02-26T07:26:08;2.10;;;1.60;;
54372;SDS011;69157;53.094;10.016;2024-02-26T07:28:36;3.70;;;1.80;;
54372;SDS011;69157;53.094;10.016;2024-02-26T07:31:02;1.85;;;1.50;;
54372;SDS011;69157;53.094;10.016;2024-02-26T07:33:28;3.00;;;1.80;;
54372;SDS011;69157;53.094;10.016;2024-02-26T07:35:54;3.90;;;1.67;;
54372;SDS011;69157;53.094;10.016;2024-02-26T07:38:20;2.72;;;1.88;;
54372;SDS011;69157;53.094;10.016;2024-02-26T07:40:48;4.55;;;2.33;;
54372;SDS011;69157;53.094;10.016;2024-02-26T07:43:16;1.95;;;1.85;;
54372;SDS011;69157;53.094;10.016;2024-02-26T07:45:42;6.10;;;1.95;;
54372;SDS011;69157;53.094;10.016;2024-02-26T07:48:08;4.00;;;3.20;;
54372;SDS011;69157;53.094;10.016;2024-02-26T07:50:35;2.60;;;2.40;;
54372;SDS011;69157;53.094;10.016;2024-02-26T07:53:02;3.22;;;2.50;;
54372;SDS011;69157;53.094;10.016;2024-02-26T07:55:28;18.95;;;10.40;;
54372;SDS011;69157;53.094;10.016;2024-02-26T07:57:56;25.20;;;10.07;;
54372;SDS011;69157;53.094;10.016;2024-02-26T08:00:22;21.98;;;10.77;;
54372;SDS011;69157;53.094;10.016;2024-02-26T08:02:48;10.82;;;7.50;;
54372;SDS011;69157;53.094;10.016;2024-02-26T08:05:14;13.88;;;5.32;;
54372;SDS011;69157;53.094;10.016;2024-02-26T08:07:41;8.13;;;4.15;;
54372;SDS011;69157;53.094;10.016;2024-02-26T08:10:08;7.20;;;2.88;;
54372;SDS011;69157;53.094;10.016;2024-02-26T08:12:38;4.72;;;2.42;;
54372;SDS011;69157;53.094;10.016;2024-02-26T08:15:04;2.97;;;1.85;;
54372;SDS011;69157;53.094;10.016;2024-02-26T08:17:31;2.60;;;2.40;;
54372;SDS011;69157;53.094;10.016;2024-02-26T08:19:58;3.72;;;2.33;;
54372;SDS011;69157;53.094;10.016;2024-02-26T08:22:24;5.57;;;2.97;;
54372;SDS011;69157;53.094;10.016;2024-02-26T08:24:52;4.35;;;2.13;;
54372;SDS011;69157;53.094;10.016;2024-02-26T08:27:18;3.05;;;2.85;;
54372;SDS011;69157;53.094;10.016;2024-02-26T08:29:44;3.17;;;2.42;;
54372;SDS011;69157;53.094;10.016;2024-02-26T08:32:10;4.18;;;2.70;;
54372;SDS011;69157;53.094;10.016;2024-02-26T08:34:37;3.85;;;2.58;;
54372;SDS011;69157;53.094;10.016;2024-02-26T08:37:03;5.32;;;3.15;;
54372;SDS011;69157;53.094;10.016;2024-02-26T08:39:29;5.00;;;3.42;;
54372;SDS011;69157;53.094;10.016;2024-02-26T08:41:55;5.65;;;3.63;;
54372;SDS011;69157;53.094;10.016;2024-02-26T08:44:21;8.18;;;4.40;;
54372;SDS011;69157;53.094;10.016;2024-02-26T08:46:47;6.25;;;3.28;;
54372;SDS011;69157;53.094;10.016;2024-02-26T08:49:13;8.15;;;4.45;;
54372;SDS011;69157;53.094;10.016;2024-02-26T08:51:41;6.38;;;3.72;;
54372;SDS011;69157;53.094;10.016;2024-02-26T08:54:08;7.90;;;4.70;;
54372;SDS011;69157;53.094;10.016;2024-02-26T08:56:34;6.35;;;3.28;;
54372;SDS011;69157;53.094;10.016;2024-02-26T08:59:00;7.55;;;3.97;;
54372;SDS011;69157;53.094;10.016;2024-02-26T09:01:28;4.88;;;3.70;;
54372;SDS011;69157;53.094;10.016;2024-02-26T09:03:54;5.85;;;3.00;;
54372;SDS011;69157;53.094;10.016;2024-02-26T09:06:22;4.63;;;2.72;;
54372;SDS011;69157;53.094;10.016;2024-02-26T09:08:47;4.88;;;3.13;;
54372;SDS011;69157;53.094;10.016;2024-02-26T09:11:14;4.65;;;2.88;;
54372;SDS011;69157;53.094;10.016;2024-02-26T09:13:39;3.13;;;2.38;;
54372;SDS011;69157;53.094;10.016;2024-02-26T09:16:06;4.05;;;2.55;;
54372;SDS011;69157;53.094;10.016;2024-02-26T09:18:33;5.07;;;2.60;;
54372;SDS011;69157;53.094;10.016;2024-02-26T09:20:59;3.75;;;2.70;;
54372;SDS011;69157;53.094;10.016;2024-02-26T09:23:27;4.38;;;2.30;;
54372;SDS011;69157;53.094;10.016;2024-02-26T09:25:52;5.28;;;3.00;;
54372;SDS011;69157;53.094;10.016;2024-02-26T09:28:19;3.28;;;2.45;;
54372;SDS011;69157;53.094;10.016;2024-02-26T09:30:44;4.05;;;2.33;;
54372;SDS011;69157;53.094;10.016;2024-02-26T09:33:10;5.00;;;2.65;;
54372;SDS011;69157;53.094;10.016;2024-02-26T09:35:36;4.53;;;2.60;;
54372;SDS011;69157;53.094;10.016;2024-02-26T09:38:02;5.78;;;2.80;;
54372;SDS011;69157;53.094;10.016;2024-02-26T09:40:28;3.47;;;2.60;;
54372;SDS011;69157;53.094;10.016;2024-02-26T09:42:57;4.50;;;2.67;;
54372;SDS011;69157;53.094;10.016;2024-02-26T09:45:25;3.08;;;2.60;;
54372;SDS011;69157;53.094;10.016;2024-02-26T09:47:52;4.45;;;3.05;;
54372;SDS011;69157;53.094;10.016;2024-02-26T09:50:20;4.20;;;2.45;;
54372;SDS011;69157;53.094;10.016;2024-02-26T09:52:47;3.30;;;2.58;;
54372;SDS011;69157;53.094;10.016;2024-02-26T09:55:13;6.40;;;3.42;;
54372;SDS011;69157;53.094;10.016;2024-02-26T09:57:42;4.38;;;3.08;;
54372;SDS011;69157;53.094;10.016;2024-02-26T10:00:10;4.05;;;3.03;;
54372;SDS011;69157;53.094;10.016;2024-02-26T10:02:38;3.97;;;2.53;;
54372;SDS011;69157;53.094;10.016;2024-02-26T10:05:04;5.05;;;2.60;;
54372;SDS011;69157;53.094;10.016;2024-02-26T10:07:33;5.00;;;2.90;;
54372;SDS011;69157;53.094;10.016;2024-02-26T10:10:01;7.10;;;3.03;;
54372;SDS011;69157;53.094;10.016;2024-02-26T10:12:27;5.85;;;2.47;;
54372;SDS011;69157;53.094;10.016;2024-02-26T10:14:53;4.75;;;3.63;;
54372;SDS011;69157;53.094;10.016;2024-02-26T10:17:21;9.10;;;3.08;;
54372;SDS011;69157;53.094;10.016;2024-02-26T10:19:47;3.00;;;2.45;;
54372;SDS011;69157;53.094;10.016;2024-02-26T10:22:13;6.78;;;2.90;;
54372;SDS011;69157;53.094;10.016;2024-02-26T10:24:39;3.13;;;2.17;;
54372;SDS011;69157;53.094;10.016;2024-02-26T10:27:05;4.40;;;2.70;;
54372;SDS011;69157;53.094;10.016;2024-02-26T10:29:34;5.57;;;2.80;;
54372;SDS011;69157;53.094;10.016;2024-02-26T10:32:00;4.43;;;2.25;;
54372;SDS011;69157;53.094;10.016;2024-02-26T10:34:26;2.75;;;2.15;;
54372;SDS011;69157;53.094;10.016;2024-02-26T10:36:53;3.22;;;2.50;;
54372;SDS011;69157;53.094;10.016;2024-02-26T10:39:19;4.32;;;2.25;;
54372;SDS011;69157;53.094;10.016;2024-02-26T10:41:45;3.75;;;2.45;;
54372;SDS011;69157;53.094;10.016;2024-02-26T10:44:11;4.43;;;2.20;;
54372;SDS011;69157;53.094;10.016;2024-02-26T10:46:38;4.28;;;1.98;;
54372;SDS011;69157;53.094;10.016;2024-02-26T10:49:04;3.92;;;2.30;;
54372;SDS011;69157;53.094;10.016;2024-02-26T10:51:31;3.58;;;2.20;;
54372;SDS011;69157;53.094;10.016;2024-02-26T10:53:59;3.42;;;2.55;;
54372;SDS011;69157;53.094;10.016;2024-02-26T10:56:29;4.10;;;2.30;;
54372;SDS011;69157;53.094;10.016;2024-02-26T10:58:58;4.20;;;2.35;;
54372;SDS011;69157;53.094;10.016;2024-02-26T11:01:25;3.45;;;1.98;;
54372;SDS011;69157;53.094;10.016;2024-02-26T11:03:54;3.53;;;2.67;;
54372;SDS011;69157;53.094;10.016;2024-02-26T11:06:23;2.83;;;1.77;;
54372;SDS011;69157;53.094;10.016;2024-02-26T11:11:18;3.08;;;1.48;;
54372;SDS011;69157;53.094;10.016;2024-02-26T11:13:45;6.85;;;2.10;;
54372;SDS011;69157;53.094;10.016;2024-02-26T11:16:15;2.88;;;2.03;;
54372;SDS011;69157;53.094;10.016;2024-02-26T11:18:42;2.97;;;2.08;;
54372;SDS011;69157;53.094;10.016;2024-02-26T11:21:08;3.00;;;1.70;;
54372;SDS011;69157;53.094;10.016;2024-02-26T11:23:34;3.10;;;1.90;;
54372;SDS011;69157;53.094;10.016;2024-02-26T11:26:05;3.22;;;1.80;;
54372;SDS011;69157;53.094;10.016;2024-02-26T11:28:32;3.65;;;2.10;;
54372;SDS011;69157;53.094;10.016;2024-02-26T11:30:59;2.08;;;1.50;;
54372;SDS011;69157;53.094;10.016;2024-02-26T11:33:27;3.05;;;2.30;;
54372;SDS011;69157;53.094;10.016;2024-02-26T11:35:54;4.35;;;2.67;;
54372;SDS011;69157;53.094;10.016;2024-02-26T11:38:23;3.92;;;1.80;;
54372;SDS011;69157;53.094;10.016;2024-02-26T11:40:50;3.50;;;2.25;;
54372;SDS011;69157;53.094;10.016;2024-02-26T11:43:16;6.88;;;2.03;;
54372;SDS011;69157;53.094;10.016;2024-02-26T11:48:11;5.57;;;1.63;;
54372;SDS011;69157;53.094;10.016;2024-02-26T11:50:41;3.78;;;1.77;;
54372;SDS011;69157;53.094;10.016;2024-02-26T11:53:20;1.88;;;1.58;;
54372;SDS011;69157;53.094;10.016;2024-02-26T11:55:46;3.33;;;1.85;;
54372;SDS011;69157;53.094;10.016;2024-02-26T11:58:12;2.17;;;1.52;;
54372;SDS011;69157;53.094;10.016;2024-02-26T12:00:39;2.67;;;1.30;;
54372;SDS011;69157;53.094;10.016;2024-02-26T12:03:07;2.83;;;1.70;;
54372;SDS011;69157;53.094;10.016;2024-02-26T12:05:36;2.83;;;1.90;;
54372;SDS011;69157;53.094;10.016;2024-02-26T12:08:04;3.55;;;1.88;;
54372;SDS011;69157;53.094;10.016;2024-02-26T12:10:37;2.85;;;2.15;;
54372;SDS011;69157;53.094;10.016;2024-02-26T12:13:06;2.40;;;1.50;;
54372;SDS011;69157;53.094;10.016;2024-02-26T12:15:37;3.25;;;2.13;;
54372;SDS011;69157;53.094;10.016;2024-02-26T12:18:04;2.00;;;1.80;;
54372;SDS011;69157;53.094;10.016;2024-02-26T12:20:30;2.58;;;1.63;;
54372;SDS011;69157;53.094;10.016;2024-02-26T12:22:57;1.40;;;1.30;;
54372;SDS011;69157;53.094;10.016;2024-02-26T12:25:27;2.05;;;1.40;;
54372;SDS011;69157;53.094;10.016;2024-02-26T12:27:53;2.72;;;1.35;;
54372;SDS011;69157;53.094;10.016;2024-02-26T12:30:20;1.95;;;1.70;;
54372;SDS011;69157;53.094;10.016;2024-02-26T12:32:48;2.13;;;1.33;;
54372;SDS011;69157;53.094;10.016;2024-02-26T12:35:14;2.70;;;1.60;;
54372;SDS011;69157;53.094;10.016;2024-02-26T12:37:41;1.35;;;1.25;;
54372;SDS011;69157;53.094;10.016;2024-02-26T12:40:10;1.30;;;1.20;;
54372;SDS011;69157;53.094;10.016;2024-02-26T12:42:38;3.20;;;1.63;;
54372;SDS011;69157;53.094;10.016;2024-02-26T12:45:05;1.38;;;1.17;;
54372;SDS011;69157;53.094;10.016;2024-02-26T12:47:35;1.33;;;1.23;;
54372;SDS011;69157;53.094;10.016;2024-02-26T12:50:02;1.45;;;1.25;;
54372;SDS011;69157;53.094;10.016;2024-02-26T12:52:31;1.33;;;1.02;;
54372;SDS011;69157;53.094;10.016;2024-02-26T12:54:58;2.03;;;1.38;;
54372;SDS011;69157;53.094;10.016;2024-02-26T12:57:24;2.50;;;1.45;;
54372;SDS011;69157;53.094;10.016;2024-02-26T12:59:52;1.33;;;1.10;;
54372;SDS011;69157;53.094;10.016;2024-02-26T13:02:18;2.15;;;1.30;;
54372;SDS011;69157;53.094;10.016;2024-02-26T13:04:44;2.10;;;1.13;;
54372;SDS011;69157;53.094;10.016;2024-02-26T13:07:10;2.13;;;1.10;;
54372;SDS011;69157;53.094;10.016;2024-02-26T13:09:36;1.33;;;1.00;;
54372;SDS011;69157;53.094;10.016;2024-02-26T13:12:06;1.77;;;1.30;;
54372;SDS011;69157;53.094;10.016;2024-02-26T13:14:33;1.27;;;0.90;;
54372;SDS011;69157;53.094;10.016;2024-02-26T13:17:00;2.13;;;1.30;;
54372;SDS011;69157;53.094;10.016;2024-02-26T13:19:27;1.27;;;1.00;;
54372;SDS011;69157;53.094;10.016;2024-02-26T13:21:53;1.73;;;1.05;;
54372;SDS011;69157;53.094;10.016;2024-02-26T13:24:20;1.48;;;1.17;;
54372;SDS011;69157;53.094;10.016;2024-02-26T13:26:47;2.22;;;1.20;;
54372;SDS011;69157;53.094;10.016;2024-02-26T13:29:16;2.47;;;1.50;;
54372;SDS011;69157;53.094;10.016;2024-02-26T13:31:42;1.92;;;1.27;;
54372;SDS011;69157;53.094;10.016;2024-02-26T13:34:10;1.20;;;1.10;;
54372;SDS011;69157;53.094;10.016;2024-02-26T13:36:36;1.60;;;1.20;;
54372;SDS011;69157;53.094;10.016;2024-02-26T13:39:03;1.17;;;1.08;;
54372;SDS011;69157;53.094;10.016;2024-02-26T13:41:30;2.15;;;1.50;;
54372;SDS011;69157;53.094;10.016;2024-02-26T13:43:57;1.30;;;1.20;;
54372;SDS011;69157;53.094;10.016;2024-02-26T13:46:24;2.75;;;1.45;;
54372;SDS011;69157;53.094;10.016;2024-02-26T13:48:50;2.47;;;1.55;;
54372;SDS011;69157;53.094;10.016;2024-02-26T13:51:16;1.63;;;1.50;;
54372;SDS011;69157;53.094;10.016;2024-02-26T13:53:42;1.73;;;1.35;;
54372;SDS011;69157;53.094;10.016;2024-02-26T13:56:08;2.45;;;1.35;;
54372;SDS011;69157;53.094;10.016;2024-02-26T13:58:35;1.73;;;1.30;;
54372;SDS011;69157;53.094;10.016;2024-02-26T14:01:01;1.70;;;1.30;;
54372;SDS011;69157;53.094;10.016;2024-02-26T14:03:28;2.22;;;1.38;;
54372;SDS011;69157;53.094;10.016;2024-02-26T14:05:55;1.90;;;1.30;;
54372;SDS011;69157;53.094;10.016;2024-02-26T14:08:22;2.75;;;1.35;;
54372;SDS011;69157;53.094;10.016;2024-02-26T14:10:50;1.13;;;1.00;;
54372;SDS011;69157;53.094;10.016;2024-02-26T14:13:15;1.40;;;1.05;;
54372;SDS011;69157;53.094;10.016;2024-02-26T14:15:41;1.73;;;1.30;;
54372;SDS011;69157;53.094;10.016;2024-02-26T14:18:07;2.47;;;1.00;;
54372;SDS011;69157;53.094;10.016;2024-02-26T14:20:35;1.75;;;1.00;;
54372;SDS011;69157;53.094;10.016;2024-02-26T14:23:02;1.52;;;1.17;;
54372;SDS011;69157;53.094;10.016;2024-02-26T14:25:29;2.65;;;1.70;;
54372;SDS011;69157;53.094;10.016;2024-02-26T14:27:55;1.50;;;1.17;;
54372;SDS011;69157;53.094;10.016;2024-02-26T14:30:24;1.48;;;1.30;;
54372;SDS011;69157;53.094;10.016;2024-02-26T14:32:51;1.13;;;0.98;;
54372;SDS011;69157;53.094;10.016;2024-02-26T14:35:17;4.97;;;1.20;;